sensor_id;sensor_type;location;lat;lon;timestamp;P1;durP1;ratioP1;P2;durP2;ratioP2
24617;SDS011;12762;51.730;5.356;2023-03-07T00:01:00;8.67;;;5.10;;
24617;SDS011;12762;51.730;5.356;2023-03-07T00:03:27;10.60;;;4.93;;
24617;SDS011;12762;51.730;5.356;2023-03-07T00:06:01;9.20;;;5.23;;
24617;SDS011;12762;51.730;5.356;2023-03-07T00:08:33;7.57;;;4.70;;
24617;SDS011;12762;51.730;5.356;2023-03-07T00:11:00;9.80;;;5.20;;
24617;SDS011;12762;51.730;5.356;2023-03-07T00:13:29;7.67;;;4.33;;
24617;SDS011;12762;51.730;5.356;2023-03-07T00:16:03;9.10;;;5.20;;
24617;SDS011;12762;51.730;5.356;2023-03-07T00:18:36;8.07;;;4.53;;
24617;SDS011;12762;51.730;5.356;2023-03-07T00:21:07;7.03;;;4.13;;
24617;SDS011;12762;51.730;5.356;2023-03-07T00:23:35;7.77;;;3.70;;
24617;SDS011;12762;51.730;5.356;2023-03-07T00:26:10;6.30;;;3.50;;
24617;SDS011;12762;51.730;5.356;2023-03-07T00:28:39;6.03;;;3.50;;
24617;SDS011;12762;51.730;5.356;2023-03-07T00:31:07;4.80;;;2.90;;
24617;SDS011;12762;51.730;5.356;2023-03-07T00:33:36;6.43;;;3.00;;
24617;SDS011;12762;51.730;5.356;2023-03-07T00:36:10;5.93;;;3.03;;
24617;SDS011;12762;51.730;5.356;2023-03-07T00:38:38;5.97;;;3.07;;
24617;SDS011;12762;51.730;5.356;2023-03-07T00:41:13;4.50;;;2.40;;
24617;SDS011;12762;51.730;5.356;2023-03-07T00:43:42;4.40;;;2.63;;
24617;SDS011;12762;51.730;5.356;2023-03-07T00:46:10;4.17;;;2.70;;
24617;SDS011;12762;51.730;5.356;2023-03-07T00:48:38;6.13;;;2.57;;
24617;SDS011;12762;51.730;5.356;2023-03-07T00:51:05;4.13;;;2.23;;
24617;SDS011;12762;51.730;5.356;2023-03-07T00:53:34;5.00;;;2.53;;
24617;SDS011;12762;51.730;5.356;2023-03-07T00:56:02;4.53;;;2.33;;
24617;SDS011;12762;51.730;5.356;2023-03-07T00:58:32;5.23;;;2.10;;
24617;SDS011;12762;51.730;5.356;2023-03-07T01:01:01;3.20;;;2.13;;
24617;SDS011;12762;51.730;5.356;2023-03-07T01:03:30;4.40;;;2.40;;
24617;SDS011;12762;51.730;5.356;2023-03-07T01:06:03;3.73;;;2.17;;
24617;SDS011;12762;51.730;5.356;2023-03-07T01:08:34;3.80;;;2.20;;
24617;SDS011;12762;51.730;5.356;2023-03-07T01:11:05;4.00;;;1.87;;
24617;SDS011;12762;51.730;5.356;2023-03-07T01:13:33;3.60;;;2.03;;
24617;SDS011;12762;51.730;5.356;2023-03-07T01:16:05;4.87;;;2.17;;
24617;SDS011;12762;51.730;5.356;2023-03-07T01:18:52;3.97;;;2.37;;
24617;SDS011;12762;51.730;5.356;2023-03-07T01:21:22;4.23;;;2.10;;
24617;SDS011;12762;51.730;5.356;2023-03-07T01:23:51;5.37;;;2.53;;
24617;SDS011;12762;51.730;5.356;2023-03-07T01:26:22;4.83;;;2.47;;
24617;SDS011;12762;51.730;5.356;2023-03-07T01:28:51;5.50;;;2.53;;
24617;SDS011;12762;51.730;5.356;2023-03-07T01:31:20;4.10;;;2.47;;
24617;SDS011;12762;51.730;5.356;2023-03-07T01:33:51;4.67;;;2.67;;
24617;SDS011;12762;51.730;5.356;2023-03-07T01:36:23;5.93;;;3.23;;
24617;SDS011;12762;51.730;5.356;2023-03-07T01:39:05;7.67;;;3.70;;
24617;SDS011;12762;51.730;5.356;2023-03-07T01:41:35;6.83;;;3.70;;
24617;SDS011;12762;51.730;5.356;2023-03-07T01:44:03;8.47;;;4.63;;
24617;SDS011;12762;51.730;5.356;2023-03-07T01:52:05;12.37;;;6.63;;
24617;SDS011;12762;51.730;5.356;2023-03-07T01:54:35;9.60;;;6.90;;
24617;SDS011;12762;51.730;5.356;2023-03-07T01:57:05;11.70;;;7.73;;
24617;SDS011;12762;51.730;5.356;2023-03-07T01:59:43;12.10;;;7.93;;
24617;SDS011;12762;51.730;5.356;2023-03-07T02:02:16;10.70;;;7.67;;
24617;SDS011;12762;51.730;5.356;2023-03-07T02:04:46;13.23;;;7.77;;
24617;SDS011;12762;51.730;5.356;2023-03-07T02:07:20;12.60;;;8.27;;
24617;SDS011;12762;51.730;5.356;2023-03-07T02:09:50;12.67;;;8.33;;
24617;SDS011;12762;51.730;5.356;2023-03-07T02:12:19;13.27;;;8.60;;
24617;SDS011;12762;51.730;5.356;2023-03-07T02:14:48;12.63;;;9.07;;
24617;SDS011;12762;51.730;5.356;2023-03-07T02:17:16;16.17;;;9.37;;
24617;SDS011;12762;51.730;5.356;2023-03-07T02:22:18;15.37;;;10.07;;
24617;SDS011;12762;51.730;5.356;2023-03-07T02:24:47;15.40;;;9.97;;
24617;SDS011;12762;51.730;5.356;2023-03-07T02:27:25;17.20;;;10.37;;
24617;SDS011;12762;51.730;5.356;2023-03-07T02:29:57;15.67;;;10.13;;
24617;SDS011;12762;51.730;5.356;2023-03-07T02:32:23;18.33;;;10.37;;
24617;SDS011;12762;51.730;5.356;2023-03-07T02:34:50;20.00;;;11.33;;
24617;SDS011;12762;51.730;5.356;2023-03-07T02:37:21;16.60;;;11.17;;
24617;SDS011;12762;51.730;5.356;2023-03-07T02:39:52;16.13;;;10.97;;
24617;SDS011;12762;51.730;5.356;2023-03-07T02:42:22;19.03;;;10.97;;
24617;SDS011;12762;51.730;5.356;2023-03-07T02:44:56;17.83;;;11.00;;
24617;SDS011;12762;51.730;5.356;2023-03-07T02:47:29;17.97;;;10.90;;
24617;SDS011;12762;51.730;5.356;2023-03-07T02:49:55;16.33;;;10.73;;
24617;SDS011;12762;51.730;5.356;2023-03-07T02:52:22;20.60;;;11.27;;
24617;SDS011;12762;51.730;5.356;2023-03-07T02:54:49;19.57;;;11.13;;
24617;SDS011;12762;51.730;5.356;2023-03-07T02:57:16;17.83;;;11.20;;
24617;SDS011;12762;51.730;5.356;2023-03-07T02:59:44;18.90;;;11.57;;
24617;SDS011;12762;51.730;5.356;2023-03-07T03:02:11;16.80;;;10.37;;
24617;SDS011;12762;51.730;5.356;2023-03-07T03:04:38;17.37;;;10.60;;
24617;SDS011;12762;51.730;5.356;2023-03-07T03:07:05;18.13;;;11.33;;
24617;SDS011;12762;51.730;5.356;2023-03-07T03:09:32;18.10;;;10.37;;
24617;SDS011;12762;51.730;5.356;2023-03-07T03:11:58;17.23;;;9.43;;
24617;SDS011;12762;51.730;5.356;2023-03-07T03:14:25;15.57;;;9.80;;
24617;SDS011;12762;51.730;5.356;2023-03-07T03:16:52;14.37;;;9.13;;
24617;SDS011;12762;51.730;5.356;2023-03-07T03:19:19;17.73;;;9.77;;
24617;SDS011;12762;51.730;5.356;2023-03-07T03:21:46;15.20;;;9.17;;
24617;SDS011;12762;51.730;5.356;2023-03-07T03:24:14;15.17;;;9.03;;
24617;SDS011;12762;51.730;5.356;2023-03-07T03:26:41;15.37;;;8.80;;
24617;SDS011;12762;51.730;5.356;2023-03-07T03:29:07;19.73;;;9.97;;
24617;SDS011;12762;51.730;5.356;2023-03-07T03:31:35;14.50;;;9.50;;
24617;SDS011;12762;51.730;5.356;2023-03-07T03:34:01;14.60;;;8.40;;
24617;SDS011;12762;51.730;5.356;2023-03-07T03:36:30;15.27;;;8.40;;
24617;SDS011;12762;51.730;5.356;2023-03-07T03:38:57;12.83;;;7.13;;
24617;SDS011;12762;51.730;5.356;2023-03-07T03:41:25;10.93;;;6.73;;
24617;SDS011;12762;51.730;5.356;2023-03-07T03:43:51;9.73;;;6.40;;
24617;SDS011;12762;51.730;5.356;2023-03-07T03:46:19;10.60;;;6.30;;
24617;SDS011;12762;51.730;5.356;2023-03-07T03:48:49;10.30;;;6.50;;
24617;SDS011;12762;51.730;5.356;2023-03-07T03:51:18;8.13;;;5.07;;
24617;SDS011;12762;51.730;5.356;2023-03-07T03:53:45;10.27;;;6.10;;
24617;SDS011;12762;51.730;5.356;2023-03-07T03:56:13;13.77;;;6.00;;
24617;SDS011;12762;51.730;5.356;2023-03-07T03:58:43;8.67;;;5.43;;
24617;SDS011;12762;51.730;5.356;2023-03-07T04:01:13;9.07;;;5.90;;
24617;SDS011;12762;51.730;5.356;2023-03-07T04:03:43;9.73;;;5.50;;
24617;SDS011;12762;51.730;5.356;2023-03-07T04:06:13;8.73;;;5.37;;
24617;SDS011;12762;51.730;5.356;2023-03-07T04:08:42;9.90;;;5.20;;
24617;SDS011;12762;51.730;5.356;2023-03-07T04:11:09;8.30;;;5.87;;
24617;SDS011;12762;51.730;5.356;2023-03-07T04:13:36;10.27;;;5.17;;
24617;SDS011;12762;51.730;5.356;2023-03-07T04:16:03;10.67;;;5.77;;
24617;SDS011;12762;51.730;5.356;2023-03-07T04:18:30;9.67;;;5.20;;
24617;SDS011;12762;51.730;5.356;2023-03-07T04:20:57;11.03;;;5.40;;
24617;SDS011;12762;51.730;5.356;2023-03-07T04:23:24;9.10;;;4.77;;
24617;SDS011;12762;51.730;5.356;2023-03-07T04:25:56;8.67;;;5.60;;
24617;SDS011;12762;51.730;5.356;2023-03-07T04:28:25;9.13;;;5.63;;
24617;SDS011;12762;51.730;5.356;2023-03-07T04:30:53;8.70;;;4.97;;
24617;SDS011;12762;51.730;5.356;2023-03-07T04:33:21;9.67;;;5.57;;
24617;SDS011;12762;51.730;5.356;2023-03-07T04:35:48;8.60;;;5.20;;
24617;SDS011;12762;51.730;5.356;2023-03-07T04:38:15;8.90;;;4.60;;
24617;SDS011;12762;51.730;5.356;2023-03-07T04:40:42;7.30;;;4.93;;
24617;SDS011;12762;51.730;5.356;2023-03-07T04:43:09;10.10;;;5.00;;
24617;SDS011;12762;51.730;5.356;2023-03-07T04:45:42;8.83;;;4.67;;
24617;SDS011;12762;51.730;5.356;2023-03-07T04:48:08;8.37;;;5.13;;
24617;SDS011;12762;51.730;5.356;2023-03-07T04:50:35;8.73;;;5.07;;
24617;SDS011;12762;51.730;5.356;2023-03-07T04:53:02;8.77;;;4.30;;
24617;SDS011;12762;51.730;5.356;2023-03-07T04:55:28;8.60;;;4.37;;
24617;SDS011;12762;51.730;5.356;2023-03-07T04:57:55;7.53;;;4.57;;
24617;SDS011;12762;51.730;5.356;2023-03-07T05:00:23;8.33;;;5.17;;
24617;SDS011;12762;51.730;5.356;2023-03-07T05:02:50;9.37;;;5.37;;
24617;SDS011;12762;51.730;5.356;2023-03-07T05:05:17;8.80;;;5.00;;
24617;SDS011;12762;51.730;5.356;2023-03-07T05:07:43;7.80;;;4.53;;
24617;SDS011;12762;51.730;5.356;2023-03-07T05:10:10;9.50;;;5.50;;
24617;SDS011;12762;51.730;5.356;2023-03-07T05:12:37;11.43;;;4.90;;
24617;SDS011;12762;51.730;5.356;2023-03-07T05:15:07;10.17;;;5.03;;
24617;SDS011;12762;51.730;5.356;2023-03-07T05:17:35;10.37;;;4.90;;
24617;SDS011;12762;51.730;5.356;2023-03-07T05:20:02;7.33;;;4.10;;
24617;SDS011;12762;51.730;5.356;2023-03-07T05:22:30;11.70;;;4.40;;
24617;SDS011;12762;51.730;5.356;2023-03-07T05:24:56;8.90;;;3.80;;
24617;SDS011;12762;51.730;5.356;2023-03-07T05:27:23;8.53;;;3.40;;
24617;SDS011;12762;51.730;5.356;2023-03-07T05:29:52;6.37;;;3.33;;
24617;SDS011;12762;51.730;5.356;2023-03-07T05:32:19;10.03;;;3.40;;
24617;SDS011;12762;51.730;5.356;2023-03-07T05:34:45;6.50;;;3.50;;
24617;SDS011;12762;51.730;5.356;2023-03-07T05:37:13;9.03;;;4.23;;
24617;SDS011;12762;51.730;5.356;2023-03-07T05:39:42;5.80;;;3.20;;
24617;SDS011;12762;51.730;5.356;2023-03-07T05:42:09;7.43;;;3.20;;
24617;SDS011;12762;51.730;5.356;2023-03-07T05:44:36;10.20;;;4.20;;
24617;SDS011;12762;51.730;5.356;2023-03-07T05:47:03;6.33;;;4.20;;
24617;SDS011;12762;51.730;5.356;2023-03-07T05:49:29;8.87;;;4.20;;
24617;SDS011;12762;51.730;5.356;2023-03-07T05:51:56;7.77;;;4.20;;
24617;SDS011;12762;51.730;5.356;2023-03-07T05:54:23;7.17;;;3.90;;
24617;SDS011;12762;51.730;5.356;2023-03-07T05:56:50;7.97;;;3.80;;
24617;SDS011;12762;51.730;5.356;2023-03-07T05:59:17;10.17;;;3.90;;
24617;SDS011;12762;51.730;5.356;2023-03-07T06:01:44;8.07;;;3.90;;
24617;SDS011;12762;51.730;5.356;2023-03-07T06:04:10;6.20;;;3.53;;
24617;SDS011;12762;51.730;5.356;2023-03-07T06:06:37;9.53;;;3.80;;
24617;SDS011;12762;51.730;5.356;2023-03-07T06:09:04;8.37;;;3.73;;
24617;SDS011;12762;51.730;5.356;2023-03-07T06:11:31;8.20;;;3.73;;
24617;SDS011;12762;51.730;5.356;2023-03-07T06:13:58;11.60;;;4.40;;
24617;SDS011;12762;51.730;5.356;2023-03-07T06:16:25;6.17;;;3.33;;
24617;SDS011;12762;51.730;5.356;2023-03-07T06:18:52;7.90;;;3.73;;
24617;SDS011;12762;51.730;5.356;2023-03-07T06:21:19;7.37;;;3.80;;
24617;SDS011;12762;51.730;5.356;2023-03-07T06:23:46;8.83;;;4.07;;
24617;SDS011;12762;51.730;5.356;2023-03-07T06:26:13;9.07;;;4.17;;
24617;SDS011;12762;51.730;5.356;2023-03-07T06:28:40;11.37;;;4.90;;
24617;SDS011;12762;51.730;5.356;2023-03-07T06:31:08;9.40;;;4.90;;
24617;SDS011;12762;51.730;5.356;2023-03-07T06:33:36;11.43;;;5.83;;
24617;SDS011;12762;51.730;5.356;2023-03-07T06:36:04;10.27;;;6.23;;
24617;SDS011;12762;51.730;5.356;2023-03-07T06:38:35;10.83;;;6.40;;
24617;SDS011;12762;51.730;5.356;2023-03-07T06:41:02;12.60;;;6.13;;
24617;SDS011;12762;51.730;5.356;2023-03-07T06:43:29;10.00;;;6.17;;
24617;SDS011;12762;51.730;5.356;2023-03-07T06:45:56;10.60;;;6.53;;
24617;SDS011;12762;51.730;5.356;2023-03-07T06:48:24;13.93;;;8.50;;
24617;SDS011;12762;51.730;5.356;2023-03-07T06:50:53;13.77;;;8.50;;
24617;SDS011;12762;51.730;5.356;2023-03-07T06:53:20;15.30;;;8.87;;
24617;SDS011;12762;51.730;5.356;2023-03-07T06:55:47;13.30;;;8.73;;
24617;SDS011;12762;51.730;5.356;2023-03-07T06:58:15;14.20;;;8.83;;
24617;SDS011;12762;51.730;5.356;2023-03-07T07:00:42;13.30;;;8.70;;
24617;SDS011;12762;51.730;5.356;2023-03-07T07:03:18;12.30;;;7.23;;
24617;SDS011;12762;51.730;5.356;2023-03-07T07:05:46;9.70;;;5.47;;
24617;SDS011;12762;51.730;5.356;2023-03-07T07:08:17;10.43;;;5.53;;
24617;SDS011;12762;51.730;5.356;2023-03-07T07:10:44;10.40;;;4.27;;
24617;SDS011;12762;51.730;5.356;2023-03-07T07:13:11;5.17;;;2.67;;
24617;SDS011;12762;51.730;5.356;2023-03-07T07:15:38;3.03;;;1.63;;
24617;SDS011;12762;51.730;5.356;2023-03-07T07:18:05;2.83;;;1.63;;
24617;SDS011;12762;51.730;5.356;2023-03-07T07:20:31;2.83;;;1.53;;
24617;SDS011;12762;51.730;5.356;2023-03-07T07:22:58;4.10;;;1.30;;
24617;SDS011;12762;51.730;5.356;2023-03-07T07:25:25;3.57;;;1.10;;
24617;SDS011;12762;51.730;5.356;2023-03-07T07:27:52;5.07;;;1.00;;
24617;SDS011;12762;51.730;5.356;2023-03-07T07:30:19;1.47;;;0.40;;
24617;SDS011;12762;51.730;5.356;2023-03-07T07:32:45;5.17;;;1.23;;
24617;SDS011;12762;51.730;5.356;2023-03-07T07:35:13;2.83;;;0.83;;
24617;SDS011;12762;51.730;5.356;2023-03-07T07:37:40;3.13;;;0.73;;
24617;SDS011;12762;51.730;5.356;2023-03-07T07:40:07;3.20;;;0.73;;
24617;SDS011;12762;51.730;5.356;2023-03-07T07:42:35;3.03;;;0.87;;
24617;SDS011;12762;51.730;5.356;2023-03-07T07:45:03;1.00;;;0.90;;
24617;SDS011;12762;51.730;5.356;2023-03-07T07:47:31;1.77;;;0.87;;
24617;SDS011;12762;51.730;5.356;2023-03-07T07:50:00;4.23;;;0.93;;
24617;SDS011;12762;51.730;5.356;2023-03-07T07:52:27;2.87;;;0.83;;
24617;SDS011;12762;51.730;5.356;2023-03-07T07:54:54;1.10;;;0.57;;
24617;SDS011;12762;51.730;5.356;2023-03-07T07:57:21;1.83;;;0.93;;
24617;SDS011;12762;51.730;5.356;2023-03-07T07:59:50;2.40;;;0.90;;
24617;SDS011;12762;51.730;5.356;2023-03-07T08:02:17;1.40;;;0.87;;
24617;SDS011;12762;51.730;5.356;2023-03-07T08:04:44;2.17;;;1.17;;
24617;SDS011;12762;51.730;5.356;2023-03-07T08:07:12;3.37;;;1.37;;
24617;SDS011;12762;51.730;5.356;2023-03-07T08:09:42;3.57;;;1.30;;
24617;SDS011;12762;51.730;5.356;2023-03-07T08:12:11;3.73;;;1.87;;
24617;SDS011;12762;51.730;5.356;2023-03-07T08:14:39;5.60;;;2.80;;
24617;SDS011;12762;51.730;5.356;2023-03-07T08:17:06;6.57;;;2.60;;
24617;SDS011;12762;51.730;5.356;2023-03-07T08:19:33;6.47;;;3.07;;
24617;SDS011;12762;51.730;5.356;2023-03-07T08:22:00;6.20;;;3.60;;
24617;SDS011;12762;51.730;5.356;2023-03-07T08:24:27;6.77;;;3.70;;
24617;SDS011;12762;51.730;5.356;2023-03-07T08:27:06;7.43;;;4.07;;
24617;SDS011;12762;51.730;5.356;2023-03-07T08:29:33;9.83;;;4.10;;
24617;SDS011;12762;51.730;5.356;2023-03-07T08:32:00;7.80;;;4.10;;
24617;SDS011;12762;51.730;5.356;2023-03-07T08:34:27;4.47;;;2.87;;
24617;SDS011;12762;51.730;5.356;2023-03-07T08:36:59;5.20;;;2.87;;
24617;SDS011;12762;51.730;5.356;2023-03-07T08:39:26;4.70;;;2.30;;
24617;SDS011;12762;51.730;5.356;2023-03-07T08:41:53;4.67;;;2.47;;
24617;SDS011;12762;51.730;5.356;2023-03-07T08:44:22;4.97;;;2.30;;
24617;SDS011;12762;51.730;5.356;2023-03-07T08:46:48;5.23;;;2.13;;
24617;SDS011;12762;51.730;5.356;2023-03-07T08:49:15;4.27;;;2.37;;
24617;SDS011;12762;51.730;5.356;2023-03-07T08:51:42;4.10;;;2.50;;
24617;SDS011;12762;51.730;5.356;2023-03-07T08:54:11;6.10;;;2.90;;
24617;SDS011;12762;51.730;5.356;2023-03-07T08:56:38;4.13;;;2.57;;
24617;SDS011;12762;51.730;5.356;2023-03-07T08:59:05;4.50;;;2.60;;
24617;SDS011;12762;51.730;5.356;2023-03-07T09:01:32;5.83;;;2.70;;
24617;SDS011;12762;51.730;5.356;2023-03-07T09:03:59;4.97;;;2.77;;
24617;SDS011;12762;51.730;5.356;2023-03-07T09:06:25;4.80;;;2.70;;
24617;SDS011;12762;51.730;5.356;2023-03-07T09:08:52;4.77;;;2.53;;
24617;SDS011;12762;51.730;5.356;2023-03-07T09:11:19;5.47;;;2.83;;
24617;SDS011;12762;51.730;5.356;2023-03-07T09:13:47;4.63;;;2.73;;
24617;SDS011;12762;51.730;5.356;2023-03-07T09:16:18;5.20;;;2.77;;
24617;SDS011;12762;51.730;5.356;2023-03-07T09:18:47;5.53;;;3.00;;
24617;SDS011;12762;51.730;5.356;2023-03-07T09:21:17;5.00;;;2.50;;
24617;SDS011;12762;51.730;5.356;2023-03-07T09:23:44;5.93;;;3.10;;
24617;SDS011;12762;51.730;5.356;2023-03-07T09:26:11;7.50;;;3.93;;
24617;SDS011;12762;51.730;5.356;2023-03-07T09:28:38;7.83;;;3.97;;
24617;SDS011;12762;51.730;5.356;2023-03-07T09:31:06;7.23;;;3.30;;
24617;SDS011;12762;51.730;5.356;2023-03-07T09:33:34;6.43;;;3.30;;
24617;SDS011;12762;51.730;5.356;2023-03-07T09:36:04;5.20;;;2.37;;
24617;SDS011;12762;51.730;5.356;2023-03-07T09:38:32;5.23;;;2.50;;
24617;SDS011;12762;51.730;5.356;2023-03-07T09:41:02;4.93;;;2.60;;
24617;SDS011;12762;51.730;5.356;2023-03-07T09:49:51;4.50;;;2.50;;
24617;SDS011;12762;51.730;5.356;2023-03-07T09:52:20;4.53;;;2.33;;
24617;SDS011;12762;51.730;5.356;2023-03-07T09:54:52;4.47;;;2.50;;
24617;SDS011;12762;51.730;5.356;2023-03-07T09:57:32;3.90;;;2.37;;
24617;SDS011;12762;51.730;5.356;2023-03-07T10:05:27;6.53;;;2.20;;
24617;SDS011;12762;51.730;5.356;2023-03-07T10:07:57;5.10;;;2.93;;
24617;SDS011;12762;51.730;5.356;2023-03-07T10:10:52;5.80;;;2.57;;
24617;SDS011;12762;51.730;5.356;2023-03-07T10:13:38;6.10;;;2.80;;
24617;SDS011;12762;51.730;5.356;2023-03-07T10:16:44;5.43;;;2.87;;
24617;SDS011;12762;51.730;5.356;2023-03-07T10:19:30;5.03;;;2.40;;
24617;SDS011;12762;51.730;5.356;2023-03-07T10:24:51;3.67;;;1.90;;
24617;SDS011;12762;51.730;5.356;2023-03-07T10:27:39;3.53;;;1.83;;
24617;SDS011;12762;51.730;5.356;2023-03-07T10:30:18;2.90;;;1.60;;
24617;SDS011;12762;51.730;5.356;2023-03-07T10:32:47;4.87;;;1.80;;
24617;SDS011;12762;51.730;5.356;2023-03-07T10:35:30;3.23;;;1.90;;
24617;SDS011;12762;51.730;5.356;2023-03-07T10:38:23;5.37;;;2.40;;
24617;SDS011;12762;51.730;5.356;2023-03-07T10:41:00;3.90;;;2.30;;
24617;SDS011;12762;51.730;5.356;2023-03-07T10:43:32;5.57;;;2.90;;
24617;SDS011;12762;51.730;5.356;2023-03-07T10:46:05;4.70;;;2.80;;
24617;SDS011;12762;51.730;5.356;2023-03-07T10:49:00;4.50;;;2.63;;
24617;SDS011;12762;51.730;5.356;2023-03-07T10:52:01;6.20;;;2.73;;
24617;SDS011;12762;51.730;5.356;2023-03-07T10:54:39;4.83;;;2.73;;
24617;SDS011;12762;51.730;5.356;2023-03-07T10:57:10;4.17;;;2.43;;
24617;SDS011;12762;51.730;5.356;2023-03-07T10:59:38;5.03;;;2.63;;
24617;SDS011;12762;51.730;5.356;2023-03-07T11:02:30;3.83;;;2.27;;
24617;SDS011;12762;51.730;5.356;2023-03-07T11:05:03;2.90;;;1.70;;
24617;SDS011;12762;51.730;5.356;2023-03-07T11:07:57;3.77;;;1.83;;
24617;SDS011;12762;51.730;5.356;2023-03-07T11:10:44;2.80;;;1.67;;
24617;SDS011;12762;51.730;5.356;2023-03-07T11:13:17;4.20;;;1.97;;
24617;SDS011;12762;51.730;5.356;2023-03-07T11:15:46;2.60;;;1.60;;
24617;SDS011;12762;51.730;5.356;2023-03-07T11:21:30;3.20;;;1.93;;
24617;SDS011;12762;51.730;5.356;2023-03-07T11:24:04;3.70;;;2.10;;
24617;SDS011;12762;51.730;5.356;2023-03-07T11:26:44;3.17;;;2.00;;
24617;SDS011;12762;51.730;5.356;2023-03-07T11:29:12;4.47;;;2.30;;
24617;SDS011;12762;51.730;5.356;2023-03-07T11:37:16;5.73;;;2.50;;
24617;SDS011;12762;51.730;5.356;2023-03-07T11:46:02;4.87;;;2.10;;
24617;SDS011;12762;51.730;5.356;2023-03-07T11:51:28;6.37;;;2.67;;
24617;SDS011;12762;51.730;5.356;2023-03-07T11:57:18;5.70;;;2.53;;
24617;SDS011;12762;51.730;5.356;2023-03-07T11:59:54;4.40;;;2.70;;
24617;SDS011;12762;51.730;5.356;2023-03-07T12:28:03;10.13;;;5.80;;
24617;SDS011;12762;51.730;5.356;2023-03-07T12:33:47;12.10;;;7.23;;
24617;SDS011;12762;51.730;5.356;2023-03-07T12:36:30;12.87;;;7.37;;
24617;SDS011;12762;51.730;5.356;2023-03-07T12:55:53;17.97;;;11.20;;
24617;SDS011;12762;51.730;5.356;2023-03-07T13:00:54;18.73;;;11.57;;
24617;SDS011;12762;51.730;5.356;2023-03-07T13:03:37;19.07;;;11.60;;
24617;SDS011;12762;51.730;5.356;2023-03-07T13:06:16;16.97;;;10.93;;
24617;SDS011;12762;51.730;5.356;2023-03-07T13:08:46;16.70;;;10.73;;
24617;SDS011;12762;51.730;5.356;2023-03-07T13:11:16;18.77;;;11.87;;
24617;SDS011;12762;51.730;5.356;2023-03-07T13:13:52;19.37;;;11.80;;
24617;SDS011;12762;51.730;5.356;2023-03-07T13:16:37;19.73;;;12.70;;
24617;SDS011;12762;51.730;5.356;2023-03-07T13:22:01;12.10;;;7.33;;
24617;SDS011;12762;51.730;5.356;2023-03-07T13:27:23;12.20;;;7.60;;
24617;SDS011;12762;51.730;5.356;2023-03-07T13:51:20;10.87;;;6.90;;
24617;SDS011;12762;51.730;5.356;2023-03-07T13:53:48;12.73;;;6.90;;
24617;SDS011;12762;51.730;5.356;2023-03-07T13:56:20;9.87;;;5.80;;
24617;SDS011;12762;51.730;5.356;2023-03-07T14:01:51;4.00;;;1.80;;
24617;SDS011;12762;51.730;5.356;2023-03-07T14:04:29;2.50;;;0.77;;
24617;SDS011;12762;51.730;5.356;2023-03-07T14:07:32;2.83;;;0.60;;
24617;SDS011;12762;51.730;5.356;2023-03-07T14:10:04;1.83;;;0.57;;
24617;SDS011;12762;51.730;5.356;2023-03-07T14:18:36;2.03;;;0.30;;
24617;SDS011;12762;51.730;5.356;2023-03-07T14:26:57;3.47;;;0.57;;
24617;SDS011;12762;51.730;5.356;2023-03-07T14:29:28;1.70;;;0.90;;
24617;SDS011;12762;51.730;5.356;2023-03-07T14:31:56;3.70;;;1.03;;
24617;SDS011;12762;51.730;5.356;2023-03-07T14:37:07;1.50;;;0.80;;
24617;SDS011;12762;51.730;5.356;2023-03-07T14:42:31;1.17;;;0.77;;
24617;SDS011;12762;51.730;5.356;2023-03-07T14:50:28;2.83;;;0.97;;
24617;SDS011;12762;51.730;5.356;2023-03-07T14:53:08;1.87;;;0.90;;
24617;SDS011;12762;51.730;5.356;2023-03-07T14:55:46;1.47;;;0.80;;
24617;SDS011;12762;51.730;5.356;2023-03-07T14:58:16;2.20;;;0.90;;
24617;SDS011;12762;51.730;5.356;2023-03-07T15:00:55;2.97;;;1.07;;
24617;SDS011;12762;51.730;5.356;2023-03-07T15:03:27;1.90;;;0.93;;
24617;SDS011;12762;51.730;5.356;2023-03-07T15:05:55;1.50;;;0.87;;
24617;SDS011;12762;51.730;5.356;2023-03-07T15:13:57;3.63;;;1.33;;
24617;SDS011;12762;51.730;5.356;2023-03-07T15:16:32;2.60;;;1.00;;
24617;SDS011;12762;51.730;5.356;2023-03-07T15:22:00;2.27;;;1.00;;
24617;SDS011;12762;51.730;5.356;2023-03-07T15:24:36;1.60;;;1.17;;
24617;SDS011;12762;51.730;5.356;2023-03-07T15:27:08;4.57;;;1.40;;
24617;SDS011;12762;51.730;5.356;2023-03-07T15:29:46;2.77;;;1.30;;
24617;SDS011;12762;51.730;5.356;2023-03-07T15:35:14;1.90;;;1.50;;
24617;SDS011;12762;51.730;5.356;2023-03-07T15:37:53;3.30;;;1.63;;
24617;SDS011;12762;51.730;5.356;2023-03-07T15:40:29;3.27;;;1.20;;
24617;SDS011;12762;51.730;5.356;2023-03-07T15:45:37;2.87;;;1.50;;
24617;SDS011;12762;51.730;5.356;2023-03-07T15:51:21;5.10;;;1.57;;
24617;SDS011;12762;51.730;5.356;2023-03-07T15:54:16;3.23;;;1.60;;
24617;SDS011;12762;51.730;5.356;2023-03-07T15:56:45;2.97;;;1.60;;
24617;SDS011;12762;51.730;5.356;2023-03-07T15:59:30;3.97;;;1.70;;
24617;SDS011;12762;51.730;5.356;2023-03-07T16:07:54;2.57;;;1.00;;
24617;SDS011;12762;51.730;5.356;2023-03-07T16:10:24;2.17;;;0.90;;
24617;SDS011;12762;51.730;5.356;2023-03-07T16:12:54;3.53;;;0.90;;
24617;SDS011;12762;51.730;5.356;2023-03-07T16:15:22;2.27;;;0.97;;
24617;SDS011;12762;51.730;5.356;2023-03-07T16:17:51;1.83;;;1.20;;
24617;SDS011;12762;51.730;5.356;2023-03-07T16:20:25;1.63;;;0.70;;
24617;SDS011;12762;51.730;5.356;2023-03-07T16:22:53;3.50;;;1.20;;
24617;SDS011;12762;51.730;5.356;2023-03-07T16:25:21;9.33;;;1.13;;
24617;SDS011;12762;51.730;5.356;2023-03-07T16:27:53;2.37;;;1.03;;
24617;SDS011;12762;51.730;5.356;2023-03-07T16:30:23;2.17;;;1.00;;
24617;SDS011;12762;51.730;5.356;2023-03-07T16:32:52;3.47;;;1.23;;
24617;SDS011;12762;51.730;5.356;2023-03-07T16:35:21;3.80;;;1.10;;
24617;SDS011;12762;51.730;5.356;2023-03-07T16:37:49;2.77;;;1.00;;
24617;SDS011;12762;51.730;5.356;2023-03-07T16:40:16;2.73;;;1.03;;
24617;SDS011;12762;51.730;5.356;2023-03-07T16:42:46;2.33;;;0.73;;
24617;SDS011;12762;51.730;5.356;2023-03-07T16:45:22;2.33;;;0.70;;
24617;SDS011;12762;51.730;5.356;2023-03-07T16:47:52;1.53;;;0.90;;
24617;SDS011;12762;51.730;5.356;2023-03-07T16:50:25;3.67;;;1.13;;
24617;SDS011;12762;51.730;5.356;2023-03-07T16:52:54;4.07;;;0.87;;
24617;SDS011;12762;51.730;5.356;2023-03-07T16:55:21;2.10;;;0.67;;
24617;SDS011;12762;51.730;5.356;2023-03-07T16:57:50;2.77;;;0.90;;
24617;SDS011;12762;51.730;5.356;2023-03-07T17:00:20;2.23;;;0.70;;
24617;SDS011;12762;51.730;5.356;2023-03-07T17:02:52;3.30;;;0.87;;
24617;SDS011;12762;51.730;5.356;2023-03-07T17:05:23;5.17;;;0.80;;
24617;SDS011;12762;51.730;5.356;2023-03-07T17:07:51;1.90;;;1.10;;
24617;SDS011;12762;51.730;5.356;2023-03-07T17:10:19;2.23;;;0.80;;
24617;SDS011;12762;51.730;5.356;2023-03-07T17:12:47;6.03;;;1.00;;
24617;SDS011;12762;51.730;5.356;2023-03-07T17:15:20;4.33;;;1.33;;
24617;SDS011;12762;51.730;5.356;2023-03-07T17:17:51;3.70;;;1.07;;
24617;SDS011;12762;51.730;5.356;2023-03-07T17:20:18;4.20;;;1.07;;
24617;SDS011;12762;51.730;5.356;2023-03-07T17:22:45;3.43;;;1.40;;
24617;SDS011;12762;51.730;5.356;2023-03-07T17:25:12;4.87;;;1.40;;
24617;SDS011;12762;51.730;5.356;2023-03-07T17:27:45;1.63;;;1.00;;
24617;SDS011;12762;51.730;5.356;2023-03-07T17:30:23;4.23;;;1.27;;
24617;SDS011;12762;51.730;5.356;2023-03-07T17:32:51;1.70;;;1.10;;
24617;SDS011;12762;51.730;5.356;2023-03-07T17:35:19;3.70;;;1.40;;
24617;SDS011;12762;51.730;5.356;2023-03-07T17:37:48;2.60;;;1.30;;
24617;SDS011;12762;51.730;5.356;2023-03-07T17:40:16;4.80;;;1.40;;
24617;SDS011;12762;51.730;5.356;2023-03-07T17:42:43;4.37;;;1.50;;
24617;SDS011;12762;51.730;5.356;2023-03-07T17:45:11;6.00;;;1.40;;
24617;SDS011;12762;51.730;5.356;2023-03-07T17:47:40;5.53;;;2.23;;
24617;SDS011;12762;51.730;5.356;2023-03-07T17:50:07;4.27;;;1.63;;